Time;durP1;ratioP1;P1;durP2;ratioP2;P2;SDS_P1;SDS_P2;PMS_P1;PMS_P2;Temp;Humidity;BMP_temperature;BMP_pressure;BME280_temperature;BME280_humidity;BME280_pressure;Samples;Min_cycle;Max_cycle;Signal;HPM_P1;HPM_P2
2023/10/27 00:01:09;;;;;;;15.13;9.80;;;9.70;99.90;;;;;;5025013;28;20021;-92
2023/10/27 00:03:35;;;;;;;15.48;9.25;;;9.70;99.90;;;;;;5024555;28;20631;-91
2023/10/27 00:06:02;;;;;;;15.65;9.88;;;9.80;99.90;;;;;;5002751;28;20079;-91
2023/10/27 00:08:28;;;;;;;15.13;9.70;;;9.70;99.90;;;;;;5027413;28;20050;-91
2023/10/27 00:10:54;;;;;;;14.77;9.27;;;9.80;99.90;;;;;;5003431;28;20021;-91
2023/10/27 00:13:20;;;;;;;13.60;9.00;;;9.80;99.90;;;;;;5026776;28;20432;-91
2023/10/27 00:15:46;;;;;;;17.23;9.73;;;9.80;99.90;;;;;;4994791;28;20022;-91
2023/10/27 00:18:12;;;;;;;14.43;9.27;;;9.80;99.90;;;;;;5006628;28;20041;-91
2023/10/27 00:20:38;;;;;;;14.45;10.13;;;9.80;99.90;;;;;;5008422;28;20437;-90
2023/10/27 00:23:04;;;;;;;14.68;9.35;;;9.90;99.90;;;;;;4996443;28;20026;-92
2023/10/27 00:25:30;;;;;;;15.77;9.10;;;9.80;99.90;;;;;;5026883;28;20474;-91
2023/10/27 00:27:56;;;;;;;15.95;10.10;;;9.80;99.90;;;;;;5027782;28;20051;-91
2023/10/27 00:30:21;;;;;;;15.30;9.70;;;9.90;99.90;;;;;;4993435;28;20083;-91
2023/10/27 00:32:47;;;;;;;16.15;9.68;;;9.90;99.90;;;;;;5006425;28;20038;-91
2023/10/27 00:35:13;;;;;;;16.00;9.27;;;9.90;99.90;;;;;;5026640;28;20049;-91
2023/10/27 00:37:40;;;;;;;16.35;10.32;;;9.90;99.90;;;;;;5004324;28;20402;-92
2023/10/27 00:40:07;;;;;;;17.92;9.98;;;9.90;99.90;;;;;;5012885;28;20424;-92
2023/10/27 00:42:33;;;;;;;13.55;9.18;;;9.90;99.90;;;;;;5019064;28;20069;-91
2023/10/27 00:44:59;;;;;;;18.17;9.93;;;9.90;99.90;;;;;;5010937;28;20065;-89
2023/10/27 00:47:26;;;;;;;17.20;10.48;;;9.90;99.90;;;;;;5008699;28;20482;-93
2023/10/27 00:49:54;;;;;;;18.40;10.52;;;9.90;99.90;;;;;;4995065;28;20037;-90
2023/10/27 00:52:22;;;;;;;17.90;10.77;;;10.00;99.90;;;;;;4993040;28;20037;-93
2023/10/27 00:54:49;;;;;;;15.60;9.32;;;10.00;99.90;;;;;;4992871;28;20099;-91
2023/10/27 00:57:16;;;;;;;16.55;10.38;;;10.00;99.90;;;;;;4993748;28;20061;-93
2023/10/27 00:59:43;;;;;;;18.00;10.43;;;10.00;99.90;;;;;;5012477;28;20022;-92
2023/10/27 01:02:09;;;;;;;17.98;10.30;;;10.00;99.90;;;;;;5027402;28;20029;-93
2023/10/27 01:04:36;;;;;;;19.85;11.52;;;10.00;99.90;;;;;;5009948;28;20032;-91
2023/10/27 01:07:03;;;;;;;22.23;12.75;;;10.10;99.90;;;;;;5010727;28;20072;-93
2023/10/27 01:09:29;;;;;;;19.80;11.52;;;10.00;99.90;;;;;;5011626;28;20040;-93
2023/10/27 01:11:55;;;;;;;18.65;10.35;;;10.00;99.90;;;;;;5025015;28;20026;-92
2023/10/27 01:14:22;;;;;;;20.88;11.68;;;10.00;99.90;;;;;;5011597;28;20048;-91
2023/10/27 01:16:49;;;;;;;18.90;11.57;;;10.10;99.90;;;;;;5008045;28;20021;-93
2023/10/27 01:19:15;;;;;;;21.23;11.80;;;10.00;99.90;;;;;;5010818;28;20477;-92
2023/10/27 01:21:41;;;;;;;20.83;10.73;;;10.10;99.90;;;;;;5012050;28;20107;-90
2023/10/27 01:24:07;;;;;;;20.63;11.73;;;10.10;99.90;;;;;;5022742;28;20092;-93
2023/10/27 01:26:33;;;;;;;20.13;11.50;;;10.10;99.90;;;;;;5007891;28;20034;-91
2023/10/27 01:28:59;;;;;;;21.42;11.25;;;10.10;99.90;;;;;;5006647;28;20176;-94
2023/10/27 01:31:25;;;;;;;21.77;11.80;;;10.10;99.90;;;;;;5025516;28;20025;-91
2023/10/27 01:33:50;;;;;;;20.27;11.80;;;10.10;99.90;;;;;;5026750;28;20108;-93
2023/10/27 01:36:16;;;;;;;21.48;12.00;;;10.10;99.90;;;;;;5007381;28;20108;-93
2023/10/27 01:38:42;;;;;;;24.23;11.32;;;10.10;99.90;;;;;;5006886;28;20505;-92
2023/10/27 01:41:07;;;;;;;21.15;11.48;;;10.20;99.90;;;;;;4992837;28;20083;-94
2023/10/27 01:43:33;;;;;;;19.60;10.95;;;10.10;99.90;;;;;;5021732;28;20050;-92
2023/10/27 01:45:59;;;;;;;22.05;12.27;;;10.20;99.90;;;;;;5024708;28;20029;-94
2023/10/27 01:48:24;;;;;;;20.55;11.32;;;10.20;99.90;;;;;;5008326;28;20540;-91
2023/10/27 01:50:50;;;;;;;20.15;12.18;;;10.20;99.90;;;;;;5027164;28;20458;-94
2023/10/27 01:53:16;;;;;;;21.02;11.82;;;10.20;99.90;;;;;;5025461;28;20030;-93
2023/10/27 01:55:42;;;;;;;21.52;12.18;;;10.20;99.90;;;;;;5024039;28;20456;-92
2023/10/27 01:58:08;;;;;;;20.95;11.20;;;10.20;99.90;;;;;;5023830;28;20108;-92
2023/10/27 02:00:34;;;;;;;21.00;11.98;;;10.20;99.90;;;;;;5021841;28;20022;-91
2023/10/27 02:03:00;;;;;;;21.20;10.75;;;10.20;99.90;;;;;;5022345;28;20025;-90
2023/10/27 02:05:26;;;;;;;18.80;11.05;;;10.30;99.90;;;;;;5008921;28;20060;-90
2023/10/27 02:07:52;;;;;;;21.85;11.13;;;10.20;99.90;;;;;;5023018;28;20037;-89
2023/10/27 02:10:17;;;;;;;22.95;12.73;;;10.30;99.90;;;;;;5026491;28;20409;-89
2023/10/27 02:12:43;;;;;;;22.65;11.45;;;10.20;99.90;;;;;;5009160;28;20404;-89
2023/10/27 02:15:09;;;;;;;22.27;11.88;;;10.30;99.90;;;;;;5009058;28;20017;-90
2023/10/27 02:17:35;;;;;;;21.08;10.93;;;10.30;99.90;;;;;;5039067;28;20034;-89
2023/10/27 02:20:00;;;;;;;22.40;11.38;;;10.20;99.90;;;;;;5010882;28;20056;-89
2023/10/27 02:22:26;;;;;;;21.75;11.60;;;10.30;99.90;;;;;;5038520;28;20029;-89
2023/10/27 02:24:52;;;;;;;23.40;11.77;;;10.30;99.90;;;;;;5025775;28;20125;-89
2023/10/27 02:27:17;;;;;;;20.45;10.60;;;10.30;99.90;;;;;;5011581;28;20025;-88
2023/10/27 02:29:43;;;;;;;23.33;12.38;;;10.30;99.90;;;;;;5045112;28;20033;-89
2023/10/27 02:32:09;;;;;;;20.15;11.48;;;10.30;99.90;;;;;;5028308;28;20080;-89
2023/10/27 02:34:34;;;;;;;21.73;11.18;;;10.30;99.90;;;;;;5030966;28;20025;-89
2023/10/27 02:37:00;;;;;;;24.42;12.32;;;10.30;99.90;;;;;;5028572;28;20025;-89
2023/10/27 02:39:26;;;;;;;22.48;11.88;;;10.30;99.90;;;;;;5028343;28;20021;-89
2023/10/27 02:41:51;;;;;;;21.20;10.25;;;10.30;99.90;;;;;;5044799;28;20030;-89
2023/10/27 02:44:17;;;;;;;23.98;12.23;;;10.30;99.90;;;;;;5031390;28;20218;-89
2023/10/27 02:46:43;;;;;;;24.05;11.93;;;10.30;99.90;;;;;;5031488;28;20123;-89
2023/10/27 02:49:09;;;;;;;24.00;12.07;;;10.30;99.90;;;;;;5027051;28;20033;-88
2023/10/27 02:51:34;;;;;;;21.77;11.57;;;10.30;99.90;;;;;;5028012;28;20025;-89
2023/10/27 02:54:01;;;;;;;19.55;11.10;;;10.30;99.90;;;;;;5029536;28;20025;-88
2023/10/27 02:56:27;;;;;;;20.70;11.48;;;10.30;99.90;;;;;;5014032;28;20060;-88
2023/10/27 02:58:52;;;;;;;22.55;11.20;;;10.30;99.90;;;;;;5014624;28;20049;-89
2023/10/27 03:01:18;;;;;;;18.10;10.45;;;10.30;99.90;;;;;;5009317;28;20037;-89
2023/10/27 03:03:44;;;;;;;20.33;10.93;;;10.30;99.90;;;;;;5014666;28;20022;-89
2023/10/27 03:06:11;;;;;;;21.00;11.07;;;10.30;99.90;;;;;;5013285;28;20026;-89
2023/10/27 03:08:40;;;;;;;18.40;9.95;;;10.30;99.90;;;;;;5047363;28;20056;-90
2023/10/27 03:11:08;;;;;;;25.17;11.43;;;10.30;99.90;;;;;;5013170;28;20108;-90
2023/10/27 03:13:34;;;;;;;20.92;10.35;;;10.30;99.90;;;;;;5029456;28;20057;-89
2023/10/27 03:16:01;;;;;;;18.20;10.18;;;10.30;99.90;;;;;;5031970;28;20037;-89
2023/10/27 03:18:27;;;;;;;18.02;10.05;;;10.30;99.90;;;;;;5012839;28;20071;-88
2023/10/27 03:21:03;;;;;;;19.05;10.23;;;10.30;99.90;;;;;;5008899;28;20104;-89
2023/10/27 03:23:29;;;;;;;18.20;10.05;;;10.30;99.90;;;;;;5044257;28;20064;-89
2023/10/27 03:25:55;;;;;;;18.13;8.68;;;10.30;99.90;;;;;;5014744;28;20061;-88
2023/10/27 03:28:21;;;;;;;17.55;9.45;;;10.30;99.90;;;;;;5015191;28;20069;-90
2023/10/27 03:30:50;;;;;;;17.80;9.20;;;10.30;99.90;;;;;;5013241;28;20041;-89
2023/10/27 03:33:17;;;;;;;18.38;9.35;;;10.30;99.90;;;;;;5043017;28;20029;-91
2023/10/27 03:35:43;;;;;;;17.25;8.95;;;10.30;99.90;;;;;;5044209;28;20093;-90
2023/10/27 03:38:10;;;;;;;13.07;7.50;;;10.30;99.90;;;;;;5014429;28;20056;-89
2023/10/27 03:40:40;;;;;;;16.98;9.00;;;10.40;99.90;;;;;;5027202;28;20551;-90
2023/10/27 03:43:09;;;;;;;17.58;8.93;;;10.30;99.90;;;;;;5027860;28;20029;-90
2023/10/27 03:45:35;;;;;;;17.63;9.13;;;10.30;99.90;;;;;;5010566;28;20125;-89
2023/10/27 03:48:02;;;;;;;15.88;8.88;;;10.40;99.90;;;;;;5030023;28;20069;-90
2023/10/27 03:50:28;;;;;;;17.50;9.63;;;10.30;99.90;;;;;;5036084;28;20030;-90
2023/10/27 03:52:54;;;;;;;14.13;7.80;;;10.30;99.90;;;;;;5042420;28;20087;-88
2023/10/27 03:55:20;;;;;;;15.07;7.90;;;10.30;99.90;;;;;;5036819;28;20536;-89
2023/10/27 03:57:45;;;;;;;14.52;8.55;;;10.30;99.90;;;;;;5010914;28;20030;-90
2023/10/27 04:00:13;;;;;;;14.95;8.80;;;10.30;99.90;;;;;;5013056;28;20482;-89
2023/10/27 04:02:39;;;;;;;14.38;8.38;;;10.30;99.90;;;;;;5024639;28;20424;-88
2023/10/27 04:05:05;;;;;;;13.02;7.53;;;10.30;99.90;;;;;;5008221;28;20030;-90
2023/10/27 04:07:31;;;;;;;12.95;6.60;;;10.30;99.90;;;;;;5027339;28;20045;-89
2023/10/27 04:09:56;;;;;;;13.02;7.47;;;10.30;99.90;;;;;;5026312;28;20025;-90
2023/10/27 04:12:22;;;;;;;15.40;8.20;;;10.30;99.90;;;;;;5028296;28;20029;-88
2023/10/27 04:14:48;;;;;;;14.32;8.13;;;10.30;99.90;;;;;;5030094;28;20025;-88
2023/10/27 04:17:14;;;;;;;12.32;7.80;;;10.30;99.90;;;;;;5031082;28;20049;-90
2023/10/27 04:19:43;;;;;;;10.98;6.63;;;10.30;99.90;;;;;;5028895;28;20029;-88
2023/10/27 04:22:09;;;;;;;14.05;8.05;;;10.30;99.90;;;;;;5029437;28;20034;-88
2023/10/27 04:24:34;;;;;;;13.82;9.25;;;10.30;99.90;;;;;;5027937;28;20516;-88
2023/10/27 04:27:00;;;;;;;11.98;7.18;;;10.20;99.90;;;;;;5033999;28;20383;-89
2023/10/27 04:29:26;;;;;;;9.77;6.45;;;10.20;99.90;;;;;;5012554;28;20040;-90
2023/10/27 04:31:51;;;;;;;11.38;7.18;;;10.20;99.90;;;;;;5025049;28;20043;-88
2023/10/27 04:34:17;;;;;;;11.27;7.55;;;10.20;99.90;;;;;;5027065;28;20033;-88
2023/10/27 04:36:44;;;;;;;11.27;6.68;;;10.30;99.90;;;;;;5029690;28;20025;-88
2023/10/27 04:39:10;;;;;;;10.40;6.57;;;10.30;99.90;;;;;;5027318;28;20071;-88
2023/10/27 04:41:36;;;;;;;10.93;6.50;;;10.20;99.90;;;;;;5028618;28;20417;-84
2023/10/27 04:44:02;;;;;;;13.10;8.73;;;10.20;99.90;;;;;;5023094;28;20054;-88
2023/10/27 04:46:27;;;;;;;12.23;8.05;;;10.20;99.90;;;;;;5025199;28;20025;-88
2023/10/27 04:48:53;;;;;;;12.98;7.45;;;10.20;99.90;;;;;;5008297;28;20080;-89
2023/10/27 04:51:20;;;;;;;11.05;6.65;;;10.30;99.90;;;;;;5026056;28;20077;-88
2023/10/27 04:53:46;;;;;;;12.57;7.50;;;10.20;99.90;;;;;;5028211;28;20501;-88
2023/10/27 04:56:12;;;;;;;10.75;7.07;;;10.20;99.90;;;;;;5011690;28;20037;-88
2023/10/27 04:58:39;;;;;;;10.88;6.88;;;10.20;99.90;;;;;;5023339;28;20120;-88
2023/10/27 05:01:16;;;;;;;12.13;7.53;;;10.20;99.90;;;;;;5008100;28;20025;-87
2023/10/27 05:03:42;;;;;;;9.82;6.30;;;10.20;99.90;;;;;;5042717;28;20033;-87
2023/10/27 05:06:12;;;;;;;9.15;5.75;;;10.20;99.90;;;;;;5010348;28;20029;-86
2023/10/27 05:08:37;;;;;;;9.17;5.63;;;10.20;99.90;;;;;;5026058;28;20061;-89
2023/10/27 05:11:06;;;;;;;8.57;5.55;;;10.20;99.90;;;;;;5007655;28;20516;-88
2023/10/27 05:13:32;;;;;;;8.63;5.07;;;10.20;99.90;;;;;;5027348;28;20040;-87
2023/10/27 05:16:00;;;;;;;7.88;5.53;;;10.20;99.90;;;;;;5029339;28;20014;-88
2023/10/27 05:18:27;;;;;;;7.47;4.75;;;10.20;99.90;;;;;;5026166;28;20037;-88
2023/10/27 05:20:53;;;;;;;8.00;5.65;;;10.20;99.90;;;;;;5007256;28;20040;-88
2023/10/27 05:23:18;;;;;;;6.90;5.03;;;10.20;99.90;;;;;;5012294;28;20038;-89
2023/10/27 05:25:44;;;;;;;7.75;5.00;;;10.20;99.90;;;;;;5044436;28;20022;-88
2023/10/27 05:28:10;;;;;;;6.45;4.18;;;10.20;99.90;;;;;;5028701;28;20120;-88
2023/10/27 05:30:36;;;;;;;6.85;4.05;;;10.20;99.90;;;;;;5008952;28;20026;-88
2023/10/27 05:33:02;;;;;;;7.70;4.25;;;10.20;99.90;;;;;;5033619;28;20386;-88
2023/10/27 05:35:28;;;;;;;5.40;3.72;;;10.20;99.90;;;;;;5026042;28;20026;-88
2023/10/27 05:37:54;;;;;;;6.88;4.30;;;10.20;99.90;;;;;;5024609;28;20032;-88
2023/10/27 05:40:19;;;;;;;6.35;4.18;;;10.10;99.90;;;;;;5007592;28;20041;-88
2023/10/27 05:42:45;;;;;;;5.70;3.83;;;10.20;99.90;;;;;;5026291;28;20455;-88
2023/10/27 05:45:11;;;;;;;4.05;2.28;;;10.20;99.90;;;;;;5026258;28;20532;-88
2023/10/27 05:47:41;;;;;;;5.22;3.38;;;10.20;99.90;;;;;;5008373;28;20029;-88
2023/10/27 05:50:08;;;;;;;4.70;3.10;;;10.20;99.90;;;;;;5024975;28;20022;-88
2023/10/27 05:52:34;;;;;;;4.65;2.97;;;10.20;99.90;;;;;;5023329;28;20026;-88
2023/10/27 05:55:00;;;;;;;4.75;3.25;;;10.20;99.90;;;;;;5005503;28;20030;-89
2023/10/27 05:57:26;;;;;;;4.45;3.08;;;10.20;99.90;;;;;;5027743;28;20116;-89
2023/10/27 05:59:51;;;;;;;4.65;2.33;;;10.20;99.90;;;;;;5006969;28;20037;-89
2023/10/27 06:02:17;;;;;;;4.65;2.88;;;10.10;99.90;;;;;;5023315;28;20029;-88
2023/10/27 06:04:43;;;;;;;4.57;3.08;;;10.20;99.90;;;;;;5041422;28;20022;-89
2023/10/27 06:07:08;;;;;;;5.28;2.88;;;10.20;99.90;;;;;;5024871;28;20037;-90
2023/10/27 06:09:36;;;;;;;3.70;2.30;;;10.10;99.90;;;;;;5041655;28;20022;-89
2023/10/27 06:12:01;;;;;;;4.22;2.63;;;10.20;99.90;;;;;;5040416;28;20033;-89
2023/10/27 06:14:27;;;;;;;3.85;2.10;;;10.10;99.90;;;;;;5028081;28;20075;-89
2023/10/27 06:16:53;;;;;;;4.32;2.58;;;10.20;99.90;;;;;;5008934;28;20064;-88
2023/10/27 06:19:20;;;;;;;5.18;3.33;;;10.20;99.90;;;;;;5023280;28;20022;-88
2023/10/27 06:21:47;;;;;;;4.47;2.42;;;10.20;99.90;;;;;;5026661;28;20032;-89
2023/10/27 06:24:13;;;;;;;5.03;2.88;;;10.10;99.90;;;;;;5038241;28;20072;-89
2023/10/27 06:26:39;;;;;;;4.03;2.33;;;10.10;99.90;;;;;;5040476;28;20061;-88
2023/10/27 06:29:04;;;;;;;4.47;2.53;;;10.10;99.90;;;;;;5025213;28;20087;-88
2023/10/27 06:31:30;;;;;;;3.92;2.20;;;10.10;99.90;;;;;;5006935;28;20025;-90
2023/10/27 06:33:56;;;;;;;3.38;2.03;;;10.10;99.90;;;;;;5006688;28;20033;-89
2023/10/27 06:36:21;;;;;;;3.90;2.10;;;10.10;99.90;;;;;;5010714;28;20139;-89
2023/10/27 06:38:47;;;;;;;4.15;2.10;;;10.10;99.90;;;;;;5024969;28;20040;-89
2023/10/27 06:41:13;;;;;;;3.65;2.50;;;10.10;99.90;;;;;;5023618;28;20129;-89
2023/10/27 06:43:38;;;;;;;3.70;2.30;;;10.10;99.90;;;;;;5007775;28;20063;-89
2023/10/27 06:46:04;;;;;;;5.20;3.45;;;10.10;99.90;;;;;;5023207;28;20026;-90
2023/10/27 06:48:30;;;;;;;4.13;2.35;;;10.10;99.90;;;;;;5008922;28;20042;-88
2023/10/27 06:50:56;;;;;;;4.15;2.60;;;10.10;99.90;;;;;;5011447;28;20026;-88
2023/10/27 06:53:21;;;;;;;5.60;2.85;;;10.20;99.90;;;;;;5010640;28;20038;-89
2023/10/27 06:55:47;;;;;;;3.85;2.45;;;10.10;99.90;;;;;;5011540;28;20038;-89
2023/10/27 06:58:13;;;;;;;4.75;3.10;;;10.10;99.90;;;;;;5025859;28;20392;-88
2023/10/27 07:00:38;;;;;;;4.78;3.10;;;10.20;99.90;;;;;;5010633;28;20093;-88
2023/10/27 07:03:04;;;;;;;4.38;2.83;;;10.20;99.90;;;;;;5023862;28;20040;-90
2023/10/27 07:05:30;;;;;;;5.03;3.10;;;10.20;99.90;;;;;;5008314;28;20026;-88
2023/10/27 07:07:55;;;;;;;5.60;3.20;;;10.20;99.90;;;;;;5034003;28;20045;-88
2023/10/27 07:10:21;;;;;;;4.97;2.88;;;10.20;99.90;;;;;;5025420;28;20437;-90
2023/10/27 07:12:47;;;;;;;5.28;3.83;;;10.20;99.90;;;;;;5012054;28;20026;-89
2023/10/27 07:15:13;;;;;;;4.47;2.53;;;10.20;99.90;;;;;;5010143;28;20117;-89
2023/10/27 07:17:42;;;;;;;5.53;3.03;;;10.20;99.90;;;;;;5026832;28;20033;-90
2023/10/27 07:20:09;;;;;;;4.88;3.28;;;10.20;99.90;;;;;;5027239;28;20025;-89
2023/10/27 07:22:36;;;;;;;5.22;3.85;;;10.20;99.90;;;;;;5010862;28;20021;-89
2023/10/27 07:25:05;;;;;;;4.78;3.17;;;10.30;99.90;;;;;;5029642;28;20076;-90
2023/10/27 07:27:30;;;;;;;4.97;3.95;;;10.20;99.90;;;;;;5008843;28;20049;-89
2023/10/27 07:29:56;;;;;;;5.97;4.45;;;10.20;99.90;;;;;;5028601;28;20025;-89
2023/10/27 07:32:22;;;;;;;6.18;4.63;;;10.30;99.90;;;;;;5010774;28;20495;-89
2023/10/27 07:34:48;;;;;;;4.75;3.13;;;10.30;99.90;;;;;;5026758;28;20089;-89
2023/10/27 07:37:14;;;;;;;5.20;4.05;;;10.30;99.90;;;;;;5009295;28;20035;-88
2023/10/27 07:39:40;;;;;;;5.43;4.22;;;10.30;99.90;;;;;;5041727;28;20167;-88
2023/10/27 07:42:07;;;;;;;6.18;4.57;;;10.30;99.90;;;;;;5010556;28;20056;-89
2023/10/27 07:44:33;;;;;;;6.00;3.85;;;10.30;99.90;;;;;;5042086;28;20044;-88
2023/10/27 07:46:59;;;;;;;4.72;3.13;;;10.30;99.90;;;;;;5034199;28;20030;-88
2023/10/27 07:49:24;;;;;;;5.85;3.72;;;10.40;99.90;;;;;;5028041;28;20385;-89
2023/10/27 07:51:50;;;;;;;5.97;4.10;;;10.30;99.90;;;;;;5026228;28;20084;-89
2023/10/27 07:54:16;;;;;;;4.93;3.15;;;10.30;99.90;;;;;;5009911;28;20437;-89
2023/10/27 07:56:42;;;;;;;7.88;4.22;;;10.30;99.90;;;;;;5030359;28;20067;-89
2023/10/27 07:59:08;;;;;;;5.18;3.75;;;10.30;99.90;;;;;;5026817;28;20034;-90
2023/10/27 08:01:34;;;;;;;4.90;3.65;;;10.30;99.90;;;;;;5002139;28;20021;-88
2023/10/27 08:04:02;;;;;;;6.07;4.10;;;10.40;99.90;;;;;;5020556;28;20041;-89
2023/10/27 08:06:29;;;;;;;4.80;3.38;;;10.30;99.90;;;;;;5039706;28;20506;-89
2023/10/27 08:08:54;;;;;;;10.73;4.45;;;10.40;99.90;;;;;;5037392;28;20448;-89
2023/10/27 08:11:21;;;;;;;4.88;3.67;;;10.40;99.90;;;;;;5035130;28;20021;-89
2023/10/27 08:13:47;;;;;;;4.95;3.78;;;10.40;99.90;;;;;;5036325;28;20033;-90
2023/10/27 08:16:15;;;;;;;5.60;4.13;;;10.40;99.90;;;;;;5020460;28;20025;-89
2023/10/27 08:18:41;;;;;;;5.07;3.80;;;10.40;99.90;;;;;;5022715;28;20021;-89
2023/10/27 08:21:07;;;;;;;7.60;5.57;;;10.40;99.90;;;;;;5006321;28;20033;-89
2023/10/27 08:23:33;;;;;;;5.05;3.80;;;10.40;99.90;;;;;;5018463;28;20032;-89
2023/10/27 08:25:59;;;;;;;6.80;4.72;;;10.40;99.90;;;;;;5025195;28;20423;-88
2023/10/27 08:28:24;;;;;;;6.55;4.88;;;10.40;99.90;;;;;;5021344;28;20037;-88
2023/10/27 08:30:50;;;;;;;5.18;4.18;;;10.40;99.90;;;;;;5036409;28;20049;-89
2023/10/27 08:33:16;;;;;;;6.35;4.88;;;10.40;99.90;;;;;;5019899;28;20029;-89
2023/10/27 08:35:42;;;;;;;5.57;4.40;;;10.50;99.90;;;;;;5034226;28;20452;-87
2023/10/27 08:38:08;;;;;;;5.20;4.20;;;10.50;99.90;;;;;;5032235;28;20049;-88
2023/10/27 08:40:37;;;;;;;6.13;4.68;;;10.50;99.90;;;;;;5019577;28;20037;-88
2023/10/27 08:43:03;;;;;;;5.50;4.35;;;10.60;99.90;;;;;;5019199;28;22266;-89
2023/10/27 08:45:31;;;;;;;6.05;4.82;;;10.60;99.90;;;;;;5005785;28;20040;-88
2023/10/27 08:48:00;;;;;;;5.65;4.22;;;10.60;99.90;;;;;;5017938;28;20069;-88
2023/10/27 08:50:25;;;;;;;7.43;5.15;;;10.70;99.90;;;;;;5039258;28;20505;-87
2023/10/27 08:52:51;;;;;;;5.97;5.13;;;10.70;99.90;;;;;;5003289;28;20072;-89
2023/10/27 08:55:17;;;;;;;4.82;3.40;;;10.70;99.90;;;;;;5018770;28;20030;-89
2023/10/27 08:57:42;;;;;;;5.75;4.75;;;10.70;99.90;;;;;;5035707;28;20066;-88
2023/10/27 09:00:09;;;;;;;6.20;4.75;;;10.80;99.90;;;;;;5021035;28;20373;-88
2023/10/27 09:02:38;;;;;;;6.10;4.95;;;10.80;99.90;;;;;;5003222;28;20140;-88
2023/10/27 09:05:06;;;;;;;5.80;5.10;;;10.80;99.90;;;;;;5003808;28;20026;-88
2023/10/27 09:07:33;;;;;;;4.97;4.32;;;10.80;99.90;;;;;;5021180;28;20038;-89
2023/10/27 09:10:00;;;;;;;6.32;4.60;;;10.80;99.90;;;;;;5008730;28;20037;-89
2023/10/27 09:12:29;;;;;;;4.38;3.63;;;10.80;99.90;;;;;;5000335;28;20030;-88
2023/10/27 09:15:05;;;;;;;4.68;3.90;;;10.80;99.90;;;;;;5036403;28;20037;-87
2023/10/27 09:17:56;;;;;;;4.35;3.53;;;10.80;99.90;;;;;;5015322;28;20058;-88
2023/10/27 09:20:23;;;;;;;5.13;4.00;;;10.80;99.90;;;;;;5038958;28;20387;-89
2023/10/27 09:23:00;;;;;;;3.30;2.75;;;10.80;99.90;;;;;;5020726;28;20116;-88
2023/10/27 09:25:29;;;;;;;4.07;3.30;;;10.80;99.90;;;;;;5002418;28;20409;-89
2023/10/27 09:27:58;;;;;;;3.95;2.88;;;10.80;99.90;;;;;;5016695;28;20041;-89
2023/10/27 09:30:37;;;;;;;3.50;3.03;;;10.80;99.90;;;;;;5018636;28;20054;-88
2023/10/27 09:33:26;;;;;;;3.83;2.85;;;10.90;99.90;;;;;;5018055;28;20074;-88
2023/10/27 09:35:52;;;;;;;4.20;3.20;;;10.80;99.90;;;;;;5033057;28;20528;-88
2023/10/27 09:38:20;;;;;;;4.10;2.90;;;10.90;99.90;;;;;;5018701;28;20405;-88
2023/10/27 09:40:46;;;;;;;4.10;2.95;;;10.90;99.90;;;;;;5018223;28;20030;-87
2023/10/27 09:43:17;;;;;;;3.25;2.70;;;10.90;99.90;;;;;;5000743;28;20026;-87
2023/10/27 09:45:54;;;;;;;4.75;3.38;;;10.90;99.90;;;;;;4999056;28;20037;-87
2023/10/27 09:48:27;;;;;;;3.53;2.53;;;10.90;99.90;;;;;;5000722;28;20088;-88
2023/10/27 09:51:11;;;;;;;4.60;3.42;;;10.90;99.90;;;;;;5019284;28;20030;-86
2023/10/27 09:53:38;;;;;;;3.30;2.60;;;10.90;99.90;;;;;;5020540;28;20025;-88
2023/10/27 09:56:05;;;;;;;3.25;2.80;;;10.90;99.90;;;;;;5008083;28;20040;-89
2023/10/27 09:58:34;;;;;;;3.58;2.47;;;11.00;99.90;;;;;;5022398;28;20044;-89
2023/10/27 10:01:01;;;;;;;3.72;3.00;;;11.00;99.90;;;;;;5002012;28;20626;-87
2023/10/27 10:03:27;;;;;;;3.60;2.80;;;11.10;99.90;;;;;;5001826;28;20072;-88
2023/10/27 10:06:18;;;;;;;4.10;3.05;;;11.10;99.90;;;;;;5030584;28;20025;-88
2023/10/27 10:09:09;;;;;;;4.00;3.03;;;11.20;99.90;;;;;;5019962;28;20040;-87
2023/10/27 10:11:55;;;;;;;4.28;3.60;;;11.20;99.90;;;;;;5000807;28;20470;-88
2023/10/27 10:14:36;;;;;;;3.35;2.75;;;11.30;99.90;;;;;;5003135;28;20038;-88
2023/10/27 10:17:02;;;;;;;3.50;2.60;;;11.20;99.90;;;;;;5003910;28;20052;-87
2023/10/27 10:19:47;;;;;;;4.38;3.13;;;11.30;99.90;;;;;;5023411;28;20582;-87
2023/10/27 10:22:42;;;;;;;4.25;2.80;;;11.40;99.90;;;;;;5007271;28;20685;-88
2023/10/27 10:25:23;;;;;;;4.50;2.83;;;11.40;99.90;;;;;;5011161;28;20061;-87
2023/10/27 10:28:07;;;;;;;4.00;2.78;;;11.40;99.90;;;;;;5017958;28;20515;-88
2023/10/27 10:30:34;;;;;;;4.00;3.08;;;11.40;99.90;;;;;;5001858;28;20041;-87
2023/10/27 10:33:23;;;;;;;4.22;3.10;;;11.30;99.90;;;;;;5033516;28;20065;-87
2023/10/27 10:35:50;;;;;;;4.43;3.72;;;11.40;99.90;;;;;;5032030;28;20444;-88
2023/10/27 10:38:22;;;;;;;3.85;3.33;;;11.30;99.90;;;;;;5018955;28;20123;-87
2023/10/27 10:40:56;;;;;;;4.93;4.18;;;11.30;99.90;;;;;;5017640;28;20029;-87
2023/10/27 10:43:23;;;;;;;5.55;3.75;;;11.30;99.90;;;;;;5016610;28;20037;-87
2023/10/27 10:45:54;;;;;;;4.57;3.95;;;11.30;99.90;;;;;;5002573;28;20101;-87
2023/10/27 10:48:22;;;;;;;4.15;3.40;;;11.40;99.90;;;;;;5022086;28;20037;-88
2023/10/27 10:50:49;;;;;;;4.40;3.90;;;11.40;99.90;;;;;;5006341;28;20109;-87
2023/10/27 10:53:17;;;;;;;5.45;4.30;;;11.40;99.90;;;;;;5022795;28;20044;-87
2023/10/27 10:55:47;;;;;;;4.85;3.85;;;11.40;99.90;;;;;;5021736;28;20033;-87
2023/10/27 10:58:26;;;;;;;4.25;3.38;;;11.40;99.90;;;;;;5019226;28;20029;-87
2023/10/27 11:00:54;;;;;;;5.75;4.40;;;11.50;99.90;;;;;;5020958;28;20474;-87
2023/10/27 11:03:23;;;;;;;4.72;3.90;;;11.50;99.90;;;;;;5021235;28;20045;-87
2023/10/27 11:05:54;;;;;;;5.65;3.80;;;11.50;99.90;;;;;;5037791;28;20029;-87
2023/10/27 11:08:29;;;;;;;4.45;4.05;;;11.50;99.90;;;;;;5022048;28;20049;-87
2023/10/27 11:10:59;;;;;;;4.00;3.50;;;11.40;99.90;;;;;;5006271;28;20029;-87
2023/10/27 11:13:27;;;;;;;4.68;4.03;;;11.50;99.90;;;;;;5020637;28;20148;-87
2023/10/27 11:15:53;;;;;;;4.82;3.63;;;11.60;99.90;;;;;;5037436;28;20040;-87
2023/10/27 11:18:19;;;;;;;3.22;2.63;;;11.50;99.90;;;;;;5025992;28;20034;-87
2023/10/27 11:20:45;;;;;;;2.85;1.92;;;11.50;99.90;;;;;;5024050;28;20034;-88
2023/10/27 11:23:13;;;;;;;4.72;3.63;;;11.50;99.90;;;;;;5022878;28;20060;-88
2023/10/27 11:25:40;;;;;;;3.22;2.70;;;11.50;99.90;;;;;;5006651;28;21951;-88
2023/10/27 11:28:29;;;;;;;2.28;1.65;;;11.40;99.90;;;;;;5003904;28;20045;-88
2023/10/27 11:31:07;;;;;;;3.67;2.40;;;11.50;99.90;;;;;;5002546;28;20036;-88
2023/10/27 11:33:35;;;;;;;4.05;3.30;;;11.50;99.90;;;;;;5019152;28;20029;-88
2023/10/27 11:36:00;;;;;;;3.92;3.25;;;11.50;99.90;;;;;;5022734;28;20026;-88
2023/10/27 11:38:34;;;;;;;3.58;2.63;;;11.50;99.90;;;;;;5002382;28;20033;-87
2023/10/27 11:41:13;;;;;;;3.50;1.75;;;11.50;99.90;;;;;;5026114;28;20033;-88
2023/10/27 11:43:40;;;;;;;3.43;1.80;;;11.60;99.90;;;;;;5035840;28;20088;-88
2023/10/27 11:46:16;;;;;;;2.03;1.27;;;11.60;99.90;;;;;;5018065;28;20061;-88
2023/10/27 11:48:42;;;;;;;2.33;1.17;;;11.60;99.90;;;;;;5020799;28;20171;-88
2023/10/27 11:51:09;;;;;;;1.95;1.05;;;11.50;99.90;;;;;;5000263;28;20320;-88
2023/10/27 11:53:40;;;;;;;1.70;0.80;;;11.60;99.90;;;;;;5032712;28;20029;-89
2023/10/27 11:56:07;;;;;;;1.60;0.70;;;11.60;99.90;;;;;;5002463;28;20118;-88
2023/10/27 11:58:33;;;;;;;2.00;1.35;;;11.70;99.90;;;;;;5019632;28;20056;-88
2023/10/27 12:00:58;;;;;;;2.15;1.55;;;11.60;99.90;;;;;;5020218;28;20126;-88
2023/10/27 12:03:25;;;;;;;2.10;1.40;;;11.50;99.90;;;;;;5005854;28;20030;-89
2023/10/27 12:05:50;;;;;;;2.63;1.40;;;11.50;99.90;;;;;;5020233;28;20104;-88
2023/10/27 12:08:16;;;;;;;2.30;1.38;;;11.50;99.90;;;;;;5024709;28;20602;-88
2023/10/27 12:10:41;;;;;;;3.25;1.30;;;11.50;99.90;;;;;;5011663;28;20212;-88
2023/10/27 12:13:07;;;;;;;1.95;1.00;;;11.60;99.90;;;;;;5007997;28;20040;-88
2023/10/27 12:15:34;;;;;;;1.75;0.85;;;11.60;99.90;;;;;;5021796;28;20025;-89
2023/10/27 12:18:01;;;;;;;2.20;1.20;;;11.60;99.90;;;;;;5021364;28;20477;-89
2023/10/27 12:20:27;;;;;;;1.95;0.90;;;11.50;99.90;;;;;;5020418;28;20061;-88
2023/10/27 12:22:55;;;;;;;1.88;1.05;;;11.50;99.90;;;;;;5019180;28;20114;-88
2023/10/27 12:25:21;;;;;;;1.35;0.80;;;11.60;99.90;;;;;;5037143;28;20049;-88
2023/10/27 12:27:47;;;;;;;1.20;0.60;;;11.60;99.90;;;;;;5017899;28;20482;-88
2023/10/27 12:30:14;;;;;;;1.48;0.60;;;11.60;99.90;;;;;;5032565;28;20037;-88
2023/10/27 12:32:40;;;;;;;1.10;0.60;;;11.50;99.90;;;;;;5004768;28;20168;-88
2023/10/27 12:35:07;;;;;;;0.90;0.40;;;11.50;99.90;;;;;;5020176;28;20129;-88
2023/10/27 12:37:33;;;;;;;1.55;0.60;;;11.50;99.90;;;;;;5020434;28;20036;-88
2023/10/27 12:39:59;;;;;;;1.80;0.50;;;11.60;99.90;;;;;;5023642;28;20033;-88
2023/10/27 12:42:24;;;;;;;1.55;0.65;;;11.60;99.90;;;;;;5007941;28;20108;-88